Time;durP1;ratioP1;P1;durP2;ratioP2;P2;SDS_P1;SDS_P2;PMS_P1;PMS_P2;Temp;Humidity;BMP_temperature;BMP_pressure;BME280_temperature;BME280_humidity;BME280_pressure;Samples;Min_cycle;Max_cycle;Signal;HPM_P1;HPM_P2
2023/03/13 00:00:50;;;;;;;25.02;5.53;;;9.40;99.90;;;;;;5040156;28;20093;-68
2023/03/13 00:03:16;;;;;;;32.22;6.13;;;;;;;;;;5026722;28;20072;-67
2023/03/13 00:05:42;;;;;;;31.42;6.93;;;;;;;;;;5025884;28;20077;-68
2023/03/13 00:08:08;;;;;;;33.05;6.15;;;;;;;;;;5030590;28;20077;-67
2023/03/13 00:10:37;;;;;;;40.75;8.70;;;;;;;;;;5029980;28;20080;-65
2023/03/13 00:13:03;;;;;;;32.72;6.05;;;;;;;;;;5020460;28;20050;-65
2023/03/13 00:15:29;;;;;;;29.33;7.53;;;;;;;;;;5032304;28;20050;-68
2023/03/13 00:17:55;;;;;;;28.27;6.22;;;;;;;;;;5029258;28;20037;-68
2023/03/13 00:20:21;;;;;;;27.48;6.95;;;;;;;;;;5022386;28;20049;-68
2023/03/13 00:22:47;;;;;;;34.92;7.45;;;;;;;;;;5026404;28;20387;-68
2023/03/13 00:25:13;;;;;;;32.25;6.53;;;;;;;;;;5028594;28;20049;-67
2023/03/13 00:27:38;;;;;;;34.15;7.03;;;9.40;99.90;;;;;;5031499;28;20131;-67
2023/03/13 00:30:04;;;;;;;26.70;5.60;;;;;;;;;;5031129;28;20136;-68
2023/03/13 00:32:30;;;;;;;23.08;5.15;;;9.50;99.90;;;;;;5026258;28;20041;-68
2023/03/13 00:34:56;;;;;;;26.15;6.82;;;;;;;;;;5025272;28;20071;-68
2023/03/13 00:37:22;;;;;;;31.23;7.07;;;;;;;;;;5028394;28;20059;-67
2023/03/13 00:39:48;;;;;;;30.77;6.38;;;;;;;;;;5030616;28;20045;-67
2023/03/13 00:42:13;;;;;;;31.48;6.40;;;9.40;99.90;;;;;;5029671;28;20038;-67
2023/03/13 00:44:39;;;;;;;27.33;7.32;;;;;;;;;;5028927;28;20041;-68
2023/03/13 00:47:06;;;;;;;34.20;6.80;;;;;;;;;;5025240;28;20137;-67
2023/03/13 00:49:32;;;;;;;22.63;6.50;;;;;;;;;;5024875;28;20103;-67
2023/03/13 00:51:58;;;;;;;32.97;7.03;;;;;;;;;;5025448;28;20073;-67
2023/03/13 00:54:24;;;;;;;29.73;6.50;;;;;;;;;;5010671;28;20458;-67
2023/03/13 00:56:50;;;;;;;27.25;5.85;;;;;;;;;;5027858;28;20041;-67
2023/03/13 00:59:16;;;;;;;31.75;6.38;;;;;;;;;;5007190;28;20049;-68
2023/03/13 01:01:42;;;;;;;33.25;5.40;;;;;;;;;;5011346;28;20124;-68
2023/03/13 01:04:10;;;;;;;32.58;7.80;;;9.20;99.90;;;;;;5034554;28;20055;-67
2023/03/13 01:06:37;;;;;;;35.35;6.43;;;;;;;;;;5028811;28;20088;-68
2023/03/13 01:09:05;;;;;;;33.47;8.77;;;;;;;;;;5005923;28;20053;-67
2023/03/13 01:11:32;;;;;;;31.92;6.63;;;;;;;;;;5006047;28;20045;-67
2023/03/13 01:13:59;;;;;;;30.80;6.18;;;;;;;;;;5024613;28;20063;-67
2023/03/13 01:16:26;;;;;;;31.65;6.63;;;;;;;;;;5012074;28;20049;-68
2023/03/13 01:18:53;;;;;;;23.65;5.47;;;;;;;;;;5028723;28;20044;-68
2023/03/13 01:21:20;;;;;;;35.25;6.55;;;;;;;;;;5028617;28;20490;-66
2023/03/13 01:23:47;;;;;;;32.50;5.70;;;9.40;99.90;;;;;;5014584;28;20060;-68
2023/03/13 01:26:13;;;;;;;25.75;6.65;;;;;;;;;;5029387;28;20466;-66
2023/03/13 01:28:39;;;;;;;29.75;6.53;;;;;;;;;;5016693;28;20046;-67
2023/03/13 01:31:17;;;;;;;29.70;5.68;;;;;;;;;;5029056;28;20106;-67
2023/03/13 01:33:43;;;;;;;28.10;5.78;;;;;;;;;;5039150;28;20907;-68
2023/03/13 01:36:09;;;;;;;19.42;5.70;;;;;;;;;;5031914;28;20129;-67
2023/03/13 01:38:35;;;;;;;22.50;5.40;;;;;;;;;;5043697;28;20456;-67
2023/03/13 01:41:02;;;;;;;23.75;5.65;;;9.50;99.90;;;;;;5022865;28;20098;-68
2023/03/13 01:43:29;;;;;;;28.23;6.22;;;;;;;;;;5029758;28;20170;-68
2023/03/13 01:46:03;;;;;;;24.00;5.28;;;;;;;;;;5033319;28;20044;-67
2023/03/13 01:48:33;;;;;;;20.27;4.15;;;;;;;;;;5017252;28;20061;-68
2023/03/13 01:51:01;;;;;;;23.17;6.00;;;;;;;;;;5027874;28;20116;-68
2023/03/13 01:53:28;;;;;;;27.83;6.05;;;;;;;;;;5027077;28;20045;-68
2023/03/13 01:55:54;;;;;;;28.52;6.35;;;;;;;;;;5027878;28;20045;-67
2023/03/13 01:58:21;;;;;;;26.08;6.05;;;;;;;;;;5026760;28;20041;-66
2023/03/13 02:04:08;;;;;;;24.77;5.55;;;;;;;;;;5137458;23;20113;-68
2023/03/13 02:06:35;;;;;;;26.75;6.68;;;;;;;;;;5010024;28;20092;-67
2023/03/13 02:09:07;;;;;;;29.98;7.10;;;;;;;;;;5009442;28;20041;-68
2023/03/13 02:11:44;;;;;;;22.88;6.05;;;;;;;;;;5009856;28;20042;-68
2023/03/13 02:14:10;;;;;;;19.80;6.05;;;;;;;;;;5007630;28;20143;-67
2023/03/13 02:16:36;;;;;;;22.25;6.10;;;;;;;;;;5007781;28;20519;-67
2023/03/13 02:19:06;;;;;;;24.42;5.85;;;;;;;;;;5007736;28;20045;-68
2023/03/13 02:21:39;;;;;;;20.77;5.93;;;;;;;;;;5008126;28;20679;-68
2023/03/13 02:24:05;;;;;;;22.75;7.43;;;;;;;;;;5007555;28;20045;-67
2023/03/13 02:26:31;;;;;;;25.00;6.47;;;;;;;;;;5008087;28;20408;-67
2023/03/13 02:28:57;;;;;;;20.77;5.97;;;9.50;99.90;;;;;;4986088;28;20111;-67
2023/03/13 02:31:23;;;;;;;22.30;5.95;;;;;;;;;;4988340;28;20045;-67
2023/03/13 02:33:49;;;;;;;15.32;5.43;;;;;;;;;;5007494;28;20041;-68
2023/03/13 02:36:15;;;;;;;19.48;6.50;;;;;;;;;;5007608;28;20103;-65
2023/03/13 02:38:51;;;;;;;19.83;5.75;;;;;;;;;;5004407;28;20408;-67
2023/03/13 02:41:19;;;;;;;14.95;5.80;;;9.70;99.90;;;;;;4987900;28;20060;-67
2023/03/13 02:43:44;;;;;;;16.73;5.25;;;9.50;99.90;;;;;;5007289;28;20042;-67
2023/03/13 02:46:12;;;;;;;13.88;6.30;;;;;;;;;;4989348;28;20049;-68
2023/03/13 02:48:40;;;;;;;16.25;5.35;;;;;;;;;;5003883;28;20117;-67
2023/03/13 02:51:10;;;;;;;11.23;5.10;;;;;;;;;;5005107;28;20058;-67
2023/03/13 02:53:36;;;;;;;20.55;8.27;;;;;;;;;;4989335;28;20129;-67
2023/03/13 02:56:03;;;;;;;15.75;5.43;;;9.50;99.90;;;;;;4989114;28;20451;-68
2023/03/13 02:58:35;;;;;;;14.40;5.72;;;;;;;;;;4982911;28;20195;-68
2023/03/13 03:01:06;;;;;;;13.90;5.88;;;;;;;;;;5005237;28;20040;-68
2023/03/13 03:03:32;;;;;;;15.73;5.93;;;;;;;;;;4998217;28;20144;-67
2023/03/13 03:05:58;;;;;;;14.65;5.90;;;9.50;99.90;;;;;;5005460;28;20482;-68
2023/03/13 03:08:24;;;;;;;14.27;5.70;;;;;;;;;;5005316;28;20040;-68
2023/03/13 03:10:49;;;;;;;12.55;5.53;;;;;;;;;;5006308;28;20551;-68
2023/03/13 03:13:15;;;;;;;10.93;5.07;;;;;;;;;;5006570;28;20044;-68
2023/03/13 03:15:41;;;;;;;15.88;5.70;;;;;;;;;;5006068;28;20123;-67
2023/03/13 03:18:07;;;;;;;15.43;7.20;;;;;;;;;;5002594;28;20045;-67
2023/03/13 03:20:33;;;;;;;12.70;5.40;;;;;;;;;;5003046;28;20115;-67
2023/03/13 03:22:59;;;;;;;15.02;6.25;;;;;;;;;;5004601;28;20044;-68
2023/03/13 03:25:25;;;;;;;10.20;5.45;;;;;;;;;;5006387;28;20125;-68
2023/03/13 03:27:51;;;;;;;8.95;5.82;;;;;;;;;;5004587;28;20038;-68
2023/03/13 03:30:17;;;;;;;13.75;5.63;;;;;;;;;;5002572;28;20770;-68
2023/03/13 03:32:43;;;;;;;10.07;5.07;;;;;;;;;;5005698;28;20045;-67
2023/03/13 03:35:09;;;;;;;10.57;5.45;;;;;;;;;;5006546;28;20443;-68
2023/03/13 03:37:35;;;;;;;12.65;6.20;;;;;;;;;;5006179;28;20081;-68
2023/03/13 03:40:04;;;;;;;8.90;5.43;;;;;;;;;;5005969;28;20065;-68
2023/03/13 03:42:30;;;;;;;12.13;5.65;;;;;;;;;;5005886;28;20045;-68
2023/03/13 03:44:56;;;;;;;8.32;5.72;;;;;;;;;;5006230;28;20053;-68
2023/03/13 03:47:22;;;;;;;8.77;6.10;;;;;;;;;;5005866;28;20046;-68
2023/03/13 03:49:48;;;;;;;10.38;5.63;;;;;;;;;;5005722;28;20044;-67
2023/03/13 03:52:14;;;;;;;9.50;6.65;;;;;;;;;;5005778;28;20045;-68
2023/03/13 03:54:40;;;;;;;11.05;6.28;;;;;;;;;;5005627;28;20133;-68
2023/03/13 03:57:06;;;;;;;14.38;6.63;;;;;;;;;;5004080;28;20038;-67
2023/03/13 03:59:32;;;;;;;9.02;7.03;;;;;;;;;;5005472;28;20118;-68
2023/03/13 04:01:58;;;;;;;9.52;6.15;;;;;;;;;;5003775;28;20053;-68
2023/03/13 04:04:24;;;;;;;11.73;6.72;;;;;;;;;;4988044;28;20057;-68
2023/03/13 04:06:50;;;;;;;14.23;7.28;;;;;;;;;;5005482;28;20515;-68
2023/03/13 04:09:16;;;;;;;12.05;6.55;;;;;;;;;;4984656;28;20049;-68
2023/03/13 04:11:42;;;;;;;12.68;7.60;;;;;;;;;;4986398;28;20085;-68
2023/03/13 04:14:08;;;;;;;15.57;7.78;;;;;;;;;;4988006;28;20045;-68
2023/03/13 04:16:34;;;;;;;16.63;7.70;;;;;;;;;;4987876;28;20057;-67
2023/03/13 04:19:00;;;;;;;11.95;7.80;;;;;;;;;;5002263;28;20053;-68
2023/03/13 04:21:26;;;;;;;14.00;8.80;;;;;;;;;;4986455;28;20699;-68
2023/03/13 04:23:52;;;;;;;12.73;8.00;;;;;;;;;;5005506;28;20068;-68
2023/03/13 04:26:18;;;;;;;13.52;7.93;;;;;;;;;;4987612;28;20066;-68
2023/03/13 04:28:44;;;;;;;13.93;9.30;;;;;;;;;;5005555;28;20041;-67
2023/03/13 04:31:10;;;;;;;17.75;10.07;;;;;;;;;;5005577;28;20034;-68
2023/03/13 04:33:36;;;;;;;16.75;10.82;;;;;;;;;;5005608;28;20041;-68
2023/03/13 04:36:02;;;;;;;15.40;10.27;;;;;;;;;;4987798;28;20415;-68
2023/03/13 04:38:28;;;;;;;17.90;11.02;;;;;;;;;;4989007;28;20042;-67
2023/03/13 04:40:54;;;;;;;20.13;10.80;;;;;;;;;;5005558;28;20124;-68
2023/03/13 04:43:20;;;;;;;20.02;11.48;;;;;;;;;;5005355;28;20038;-68
2023/03/13 04:45:46;;;;;;;26.83;12.00;;;;;;;;;;5005353;28;20060;-68
2023/03/13 04:48:12;;;;;;;19.35;11.93;;;;;;;;;;4988822;28;20141;-68
2023/03/13 04:50:38;;;;;;;20.52;11.48;;;;;;;;;;5007002;28;20096;-68
2023/03/13 04:53:04;;;;;;;17.88;10.43;;;;;;;;;;5009323;28;20042;-68
2023/03/13 04:55:30;;;;;;;20.45;11.55;;;;;;;;;;4991490;28;20435;-67
2023/03/13 04:57:56;;;;;;;22.35;11.48;;;;;;;;;;5009254;28;20053;-68
2023/03/13 05:00:22;;;;;;;18.70;11.52;;;;;;;;;;4991123;28;20061;-68
2023/03/13 05:02:48;;;;;;;21.40;10.30;;;;;;;;;;5008808;28;20058;-68
2023/03/13 05:05:13;;;;;;;20.33;11.30;;;11.00;99.90;;;;;;4972021;28;20188;-68
2023/03/13 05:07:39;;;;;;;17.45;10.68;;;;;;;;;;5008747;28;20491;-66
2023/03/13 05:10:06;;;;;;;15.27;10.52;;;;;;;;;;4991833;28;20045;-68
2023/03/13 05:12:32;;;;;;;19.55;10.52;;;;;;;;;;5009383;28;20088;-68
2023/03/13 05:14:58;;;;;;;18.95;10.10;;;;;;;;;;5009142;28;20471;-68
2023/03/13 05:17:24;;;;;;;15.93;9.57;;;;;;;;;;4989984;28;20046;-68
2023/03/13 05:19:50;;;;;;;15.23;9.13;;;;;;;;;;5005977;28;20144;-68
2023/03/13 05:22:16;;;;;;;13.93;9.77;;;;;;;;;;4990211;28;20069;-68
2023/03/13 05:24:42;;;;;;;11.43;7.43;;;;;;;;;;5008480;28;20152;-68
2023/03/13 05:27:08;;;;;;;12.48;7.90;;;;;;;;;;5008717;28;20038;-68
2023/03/13 05:29:34;;;;;;;13.32;8.05;;;;;;;;;;5008582;28;20522;-67
2023/03/13 05:31:59;;;;;;;14.45;7.93;;;11.50;99.90;;;;;;5008200;28;20029;-68
2023/03/13 05:34:25;;;;;;;11.40;6.85;;;;;;;;;;5008511;28;20373;-67
2023/03/13 05:36:51;;;;;;;13.95;7.72;;;;;;;;;;4990798;28;20119;-68
2023/03/13 05:39:17;;;;;;;12.18;7.55;;;;;;;;;;4990391;28;20053;-68
2023/03/13 05:41:43;;;;;;;13.80;6.75;;;;;;;;;;4990169;28;20046;-68
2023/03/13 05:44:09;;;;;;;10.00;6.28;;;;;;;;;;5008416;28;20475;-68
2023/03/13 05:46:35;;;;;;;13.07;6.13;;;;;;;;;;5008150;28;20053;-68
2023/03/13 05:49:01;;;;;;;11.95;5.75;;;;;;;;;;5008376;28;20045;-68
2023/03/13 05:51:27;;;;;;;10.15;5.88;;;;;;;;;;4990184;28;20507;-68
2023/03/13 05:53:53;;;;;;;10.50;7.28;;;;;;;;;;4989976;28;20049;-69
2023/03/13 05:56:19;;;;;;;11.68;6.97;;;;;;;;;;5007819;28;20527;-67
2023/03/13 05:58:45;;;;;;;11.48;6.68;;;;;;;;;;5006559;28;20181;-68
2023/03/13 06:01:12;;;;;;;11.93;6.97;;;;;;;;;;4990667;28;20053;-66
2023/03/13 06:03:38;;;;;;;18.25;7.35;;;;;;;;;;5016338;28;20053;-68
2023/03/13 06:06:04;;;;;;;10.57;6.60;;;;;;;;;;5006504;28;20132;-68
2023/03/13 06:08:31;;;;;;;14.30;7.05;;;11.70;99.90;;;;;;5005243;28;20048;-69
2023/03/13 06:11:00;;;;;;;12.10;6.72;;;11.80;99.90;;;;;;5005530;28;20049;-70
2023/03/13 06:13:26;;;;;;;12.05;7.22;;;;;;;;;;5006271;28;20050;-67
2023/03/13 06:15:57;;;;;;;18.17;7.57;;;11.70;99.90;;;;;;5006196;28;20063;-68
2023/03/13 06:18:23;;;;;;;12.35;6.18;;;;;;;;;;5007944;28;20527;-68
2023/03/13 06:20:49;;;;;;;13.68;6.93;;;11.60;99.90;;;;;;5006992;28;20471;-69
2023/03/13 06:23:15;;;;;;;14.82;7.15;;;11.70;99.90;;;;;;5006147;28;20081;-68
2023/03/13 06:25:41;;;;;;;11.98;7.38;;;11.80;99.90;;;;;;5007078;28;20045;-68
2023/03/13 06:28:07;;;;;;;15.07;6.68;;;;;;;;;;5007793;28;20046;-68
2023/03/13 06:30:33;;;;;;;14.05;6.63;;;;;;;;;;5007095;28;20842;-68
2023/03/13 06:32:59;;;;;;;14.55;7.13;;;;;;;;;;5007100;28;20766;-68
2023/03/13 06:35:25;;;;;;;16.80;7.07;;;;;;;;;;5005684;28;20052;-69
2023/03/13 06:37:50;;;;;;;17.48;6.93;;;11.70;99.90;;;;;;5006866;28;20105;-68
2023/03/13 06:40:16;;;;;;;16.83;7.18;;;11.80;99.90;;;;;;5006085;28;20057;-68
2023/03/13 06:42:42;;;;;;;16.55;6.20;;;;;;;;;;5005251;28;20056;-68
2023/03/13 06:45:08;;;;;;;11.25;5.60;;;;;;;;;;5007218;28;20049;-69
2023/03/13 06:47:34;;;;;;;11.90;5.65;;;;;;;;;;5004459;28;20041;-66
2023/03/13 06:50:00;;;;;;;14.02;5.43;;;;;;;;;;5002510;28;20048;-69
2023/03/13 06:52:26;;;;;;;14.55;6.43;;;11.80;99.90;;;;;;5006396;28;20045;-68
2023/03/13 06:54:52;;;;;;;11.82;5.28;;;;;;;;;;5005234;28;20132;-70
2023/03/13 06:57:18;;;;;;;14.30;6.25;;;;;;;;;;5004428;28;20125;-69
2023/03/13 06:59:44;;;;;;;11.55;4.88;;;;;;;;;;5003407;28;20053;-70
2023/03/13 07:02:14;;;;;;;14.18;5.10;;;;;;;;;;5006017;28;20562;-70
2023/03/13 07:04:40;;;;;;;18.05;6.05;;;;;;;;;;4988505;28;20522;-69
2023/03/13 07:07:06;;;;;;;17.10;6.63;;;;;;;;;;4989723;28;20128;-70
2023/03/13 07:09:31;;;;;;;15.25;5.35;;;11.80;99.90;;;;;;4988660;28;20041;-70
2023/03/13 07:11:58;;;;;;;13.70;5.65;;;;;;;;;;5006319;28;20095;-70
2023/03/13 07:14:24;;;;;;;11.45;5.57;;;;;;;;;;5006450;28;21369;-70
2023/03/13 07:16:50;;;;;;;9.35;5.45;;;11.80;99.90;;;;;;5007730;28;20052;-70
2023/03/13 07:19:16;;;;;;;11.88;4.80;;;;;;;;;;4991367;28;20407;-70
2023/03/13 07:21:43;;;;;;;15.43;5.20;;;;;;;;;;4988283;28;20120;-71
2023/03/13 07:24:09;;;;;;;13.45;5.30;;;;;;;;;;5006786;28;20038;-70
2023/03/13 07:26:35;;;;;;;14.25;4.88;;;;;;;;;;4987449;28;20060;-70
2023/03/13 07:29:01;;;;;;;13.38;5.47;;;;;;;;;;4987104;28;20121;-71
2023/03/13 07:31:28;;;;;;;13.85;4.97;;;11.80;99.90;;;;;;5007243;28;20052;-70
2023/03/13 07:33:55;;;;;;;13.65;4.70;;;;;;;;;;4990642;28;20038;-71
2023/03/13 07:36:21;;;;;;;11.80;4.72;;;;;;;;;;4986452;28;20742;-70
2023/03/13 07:38:51;;;;;;;15.25;4.70;;;;;;;;;;5007096;28;20081;-70
2023/03/13 07:41:18;;;;;;;11.02;4.28;;;11.80;99.90;;;;;;4997522;28;20073;-71
2023/03/13 07:43:44;;;;;;;11.45;4.68;;;11.80;99.90;;;;;;5007907;28;20048;-67
2023/03/13 07:46:11;;;;;;;16.15;5.13;;;;;;;;;;5008009;28;20061;-67
2023/03/13 07:48:39;;;;;;;11.52;4.47;;;;;;;;;;5003689;28;20087;-67
2023/03/13 07:51:09;;;;;;;10.95;5.18;;;11.70;99.90;;;;;;5004928;28;20077;-67
2023/03/13 07:53:35;;;;;;;18.10;5.03;;;;;;;;;;5013122;28;20148;-67
2023/03/13 07:56:04;;;;;;;7.15;4.03;;;11.70;99.90;;;;;;5009729;28;20889;-68
2023/03/13 07:58:31;;;;;;;7.53;3.90;;;;;;;;;;5017374;28;20045;-67
2023/03/13 08:00:57;;;;;;;10.30;4.55;;;11.80;99.90;;;;;;4990769;28;20064;-67
2023/03/13 08:03:23;;;;;;;10.25;3.38;;;;;;;;;;4996864;28;20046;-66
2023/03/13 08:05:59;;;;;;;5.43;2.97;;;;;;;;;;5006320;28;20043;-67
2023/03/13 08:08:26;;;;;;;7.50;3.80;;;;;;;;;;5004552;28;20082;-67
2023/03/13 08:10:51;;;;;;;6.05;2.40;;;;;;;;;;5005855;28;20037;-67
2023/03/13 08:13:17;;;;;;;3.33;2.35;;;12.00;99.90;;;;;;5005224;28;20484;-67
2023/03/13 08:15:43;;;;;;;8.13;3.08;;;12.00;99.90;;;;;;5002886;28;20056;-67
2023/03/13 08:18:08;;;;;;;7.40;3.08;;;12.00;99.90;;;;;;5000505;28;20046;-67
2023/03/13 08:20:34;;;;;;;10.52;2.85;;;;;;;;;;5003817;28;20054;-67
2023/03/13 08:23:00;;;;;;;5.45;3.85;;;;;;;;;;5006472;28;20037;-67
2023/03/13 08:25:26;;;;;;;9.38;3.22;;;;;;;;;;5009441;28;20061;-68
2023/03/13 08:27:52;;;;;;;6.70;2.95;;;;;;;;;;5009284;28;20041;-67
2023/03/13 08:30:18;;;;;;;12.43;2.78;;;12.20;99.90;;;;;;5001720;28;20041;-67
2023/03/13 08:32:43;;;;;;;10.15;2.35;;;12.30;99.90;;;;;;5009194;28;20037;-67
2023/03/13 08:35:09;;;;;;;7.55;2.30;;;;;;;;;;5004522;28;20149;-68
2023/03/13 08:37:35;;;;;;;6.38;2.03;;;;;;;;;;5000647;28;20503;-67
2023/03/13 08:40:02;;;;;;;8.95;2.33;;;;;;;;;;5007681;28;20038;-67
2023/03/13 08:42:28;;;;;;;3.15;1.75;;;12.40;99.90;;;;;;5005626;28;20085;-67
2023/03/13 08:44:53;;;;;;;8.52;2.97;;;13.10;99.90;;;;;;5004434;28;20572;-67
2023/03/13 08:47:19;;;;;;;10.73;3.22;;;;;;;;;;5005160;28;20038;-68
2023/03/13 08:49:45;;;;;;;4.55;1.77;;;;;;;;;;5001374;28;20041;-68
2023/03/13 08:52:11;;;;;;;7.13;2.15;;;;;;;;;;5004877;28;20129;-67
2023/03/13 08:54:37;;;;;;;5.22;1.98;;;;;;;;;;5006802;28;20080;-67
2023/03/13 08:57:03;;;;;;;7.05;1.92;;;12.80;99.90;;;;;;5003775;28;20120;-67
2023/03/13 08:59:29;;;;;;;4.63;1.85;;;12.80;99.90;;;;;;5003927;28;20038;-68
2023/03/13 09:01:55;;;;;;;6.28;2.55;;;;;;;;;;5004409;28;20550;-68
2023/03/13 09:04:21;;;;;;;6.95;1.70;;;;;;;;;;5001675;28;20876;-67
2023/03/13 09:06:47;;;;;;;6.28;2.58;;;;;;;;;;5005306;28;20336;-67
2023/03/13 09:09:13;;;;;;;6.68;2.45;;;;;;;;;;4997680;28;20123;-68
2023/03/13 09:11:39;;;;;;;7.93;2.80;;;12.70;99.90;;;;;;5003676;28;20042;-67
2023/03/13 09:14:05;;;;;;;13.52;2.80;;;12.70;99.90;;;;;;5004051;28;20045;-67
2023/03/13 09:16:32;;;;;;;6.20;2.35;;;;;;;;;;5003490;28;20050;-68
2023/03/13 09:18:58;;;;;;;11.57;2.50;;;;;;;;;;5003453;28;20053;-67
2023/03/13 09:21:26;;;;;;;7.93;2.90;;;;;;;;;;5006120;28;20081;-67
2023/03/13 09:23:52;;;;;;;6.53;2.45;;;;;;;;;;5004377;28;20121;-67
2023/03/13 09:26:19;;;;;;;11.10;3.20;;;12.40;99.90;;;;;;5004878;28;20050;-67
2023/03/13 09:28:45;;;;;;;6.93;2.80;;;12.40;99.90;;;;;;5009215;28;20080;-67
2023/03/13 09:31:13;;;;;;;8.88;3.10;;;12.40;99.90;;;;;;5011889;28;20487;-67
2023/03/13 09:33:39;;;;;;;5.78;2.75;;;12.70;99.90;;;;;;5006311;28;20061;-67
2023/03/13 09:36:06;;;;;;;9.40;2.47;;;12.70;99.90;;;;;;5011052;28;20080;-67
2023/03/13 09:38:32;;;;;;;6.80;2.47;;;;;;;;;;5001643;28;20726;-67
2023/03/13 09:41:02;;;;;;;9.80;2.50;;;;;;;;;;5008034;28;20038;-67
2023/03/13 09:43:49;;;;;;;9.02;2.63;;;13.10;99.90;;;;;;4988646;28;20058;-67
2023/03/13 09:46:23;;;;;;;11.13;2.30;;;13.90;99.90;;;;;;5009071;28;20041;-67
2023/03/13 09:48:57;;;;;;;7.88;2.00;;;14.40;99.90;;;;;;5004963;28;20045;-68
2023/03/13 09:51:35;;;;;;;9.43;2.75;;;15.40;99.90;;;;;;5008475;28;20047;-69
2023/03/13 09:54:13;;;;;;;10.55;2.50;;;15.90;99.90;;;;;;5009153;28;20053;-69
2023/03/13 09:57:02;;;;;;;8.73;3.08;;;17.90;99.90;;;;;;5007857;28;20049;-69
2023/03/13 09:59:28;;;;;;;10.23;2.33;;;;;;;;;;5025508;28;20084;-69
2023/03/13 10:01:57;;;;;;;10.95;2.42;;;17.70;99.90;;;;;;5009207;28;20084;-69
2023/03/13 10:04:36;;;;;;;11.85;1.83;;;17.60;99.90;;;;;;5008387;28;20169;-69
2023/03/13 10:07:03;;;;;;;9.13;2.10;;;;;;;;;;5012087;28;20030;-69
2023/03/13 10:09:32;;;;;;;9.65;2.35;;;16.00;99.90;;;;;;5009814;28;20854;-69
2023/03/13 10:12:30;;;;;;;12.35;2.30;;;15.30;99.90;;;;;;5007437;28;20042;-69
2023/03/13 10:15:16;;;;;;;9.60;2.15;;;15.00;99.90;;;;;;5004976;28;20054;-70
2023/03/13 10:17:42;;;;;;;12.20;2.85;;;;;;;;;;5021108;28;20129;-69
2023/03/13 10:20:27;;;;;;;15.18;3.45;;;14.90;99.90;;;;;;5003381;28;20637;-69
2023/03/13 10:23:14;;;;;;;10.30;2.13;;;15.10;99.90;;;;;;5007414;28;20519;-70
2023/03/13 10:25:40;;;;;;;14.77;2.47;;;14.80;99.90;;;;;;5010954;28;20043;-70
2023/03/13 10:28:11;;;;;;;13.05;2.80;;;15.30;99.90;;;;;;5006370;28;20034;-70
2023/03/13 10:30:38;;;;;;;12.48;2.63;;;15.80;99.90;;;;;;5003842;28;20042;-70
2023/03/13 10:33:06;;;;;;;14.15;2.85;;;16.60;99.90;;;;;;5009157;28;20062;-69
2023/03/13 10:35:39;;;;;;;14.30;3.35;;;16.50;99.90;;;;;;5006344;28;20920;-69
2023/03/13 10:38:17;;;;;;;9.95;2.33;;;18.30;99.90;;;;;;5004256;28;20049;-69
2023/03/13 10:40:43;;;;;;;12.32;3.25;;;;;;;;;;5005294;28;20065;-69
2023/03/13 10:43:18;;;;;;;14.02;3.95;;;18.30;99.90;;;;;;5010372;28;20067;-68
2023/03/13 10:45:44;;;;;;;14.20;2.55;;;;;;;;;;5004335;28;20038;-69
2023/03/13 10:48:12;;;;;;;16.05;3.75;;;17.50;99.90;;;;;;5012766;28;20037;-68
2023/03/13 10:50:43;;;;;;;12.23;2.10;;;16.60;99.90;;;;;;5004764;28;20172;-68
2023/03/13 10:53:35;;;;;;;11.52;2.72;;;16.50;99.90;;;;;;5008729;28;20029;-68
2023/03/13 10:56:18;;;;;;;14.68;2.95;;;16.50;99.90;;;;;;5017039;28;20054;-68
2023/03/13 10:58:50;;;;;;;8.93;2.13;;;16.60;99.90;;;;;;5006376;28;20399;-69
2023/03/13 11:01:20;;;;;;;9.85;2.00;;;16.20;99.90;;;;;;5006504;28;20084;-68
2023/03/13 11:03:47;;;;;;;13.30;2.53;;;16.10;99.90;;;;;;5000233;28;20064;-68
2023/03/13 11:06:39;;;;;;;9.00;2.05;;;15.60;99.90;;;;;;5006882;28;20400;-69
2023/03/13 11:09:15;;;;;;;11.90;2.33;;;15.70;99.90;;;;;;5002419;28;20053;-68
2023/03/13 11:11:53;;;;;;;7.47;1.67;;;15.50;99.90;;;;;;5007274;28;20518;-68
2023/03/13 11:14:21;;;;;;;9.07;1.92;;;15.30;99.90;;;;;;4973058;28;20455;-69
2023/03/13 11:17:00;;;;;;;6.72;1.95;;;15.20;99.90;;;;;;5006754;28;20042;-68
2023/03/13 11:19:45;;;;;;;8.40;2.15;;;15.00;99.90;;;;;;5003132;28;20033;-68
2023/03/13 11:22:13;;;;;;;7.63;1.80;;;14.80;99.90;;;;;;4988538;28;20056;-69
2023/03/13 11:25:00;;;;;;;8.90;2.47;;;14.80;99.90;;;;;;4989349;28;20084;-68
2023/03/13 11:27:54;;;;;;;7.50;1.52;;;15.00;99.90;;;;;;4987844;28;20053;-68
2023/03/13 11:30:43;;;;;;;7.75;2.00;;;14.80;99.90;;;;;;4986145;28;20091;-68
2023/03/13 11:33:27;;;;;;;3.88;1.60;;;15.00;99.90;;;;;;4983577;28;20136;-68
2023/03/13 11:36:00;;;;;;;7.95;1.52;;;15.10;99.90;;;;;;5006907;28;20034;-68
2023/03/13 11:38:35;;;;;;;6.30;1.98;;;15.30;99.90;;;;;;5010673;28;20034;-69
2023/03/13 11:41:34;;;;;;;7.07;1.60;;;15.70;99.90;;;;;;5011859;28;20516;-69
2023/03/13 11:44:13;;;;;;;7.00;1.77;;;15.60;99.90;;;;;;5006014;28;20697;-71
2023/03/13 11:46:48;;;;;;;7.07;1.60;;;15.50;99.90;;;;;;5003553;28;20050;-68
2023/03/13 11:50:04;;;;;;;8.63;1.88;;;15.60;99.90;;;;;;4991771;28;20057;-68
2023/03/13 11:52:49;;;;;;;;;;;15.70;99.90;;;;;;4969411;28;20053;-69
2023/03/13 11:55:36;;;;;;;8.65;1.80;;;16.00;99.90;;;;;;5002615;28;19922;-69
2023/03/13 11:58:14;;;;;;;6.28;1.90;;;15.90;99.90;;;;;;4988660;28;20104;-69
2023/03/13 12:01:01;;;;;;;7.88;2.20;;;15.80;99.90;;;;;;4984792;28;20629;-69
2023/03/13 12:03:58;;;;;;;9.73;1.85;;;16.00;99.90;;;;;;5551424;22;20063;-91
2023/03/13 12:06:24;;;;;;;10.27;2.13;;;;;;;;;;5022390;28;20051;-90
2023/03/13 12:09:20;;;;;;;11.98;2.25;;;15.70;99.90;;;;;;5020032;28;20357;-90
2023/03/13 12:12:04;;;;;;;11.45;2.00;;;15.60;99.90;;;;;;4996837;28;20068;-90
2023/03/13 12:14:42;;;;;;;11.25;2.47;;;15.60;99.90;;;;;;5017765;28;20041;-91
2023/03/13 12:17:32;;;;;;;12.13;2.78;;;15.80;99.90;;;;;;5014936;28;20094;-91
2023/03/13 12:20:18;;;;;;;7.50;1.70;;;15.80;99.90;;;;;;5009253;28;20042;-90
2023/03/13 12:22:46;;;;;;;7.35;2.25;;;15.90;99.90;;;;;;4998159;28;20550;-91
2023/03/13 12:25:34;;;;;;;10.93;2.35;;;16.30;99.90;;;;;;5016650;28;20487;-91
2023/03/13 12:28:22;;;;;;;10.80;1.95;;;16.10;99.90;;;;;;5019004;28;20082;-90
2023/03/13 12:30:58;;;;;;;12.95;2.95;;;16.30;99.90;;;;;;5025738;28;20075;-90
2023/03/13 12:33:38;;;;;;;8.85;2.70;;;16.40;99.90;;;;;;5015182;28;20041;-91
2023/03/13 12:36:18;;;;;;;7.97;1.90;;;16.00;99.90;;;;;;5005710;28;20044;-91
2023/03/13 12:39:01;;;;;;;6.70;2.83;;;;;;;;;;5023784;28;20072;-91
2023/03/13 12:41:42;;;;;;;14.43;2.15;;;16.00;99.90;;;;;;5023002;28;20436;-91
2023/03/13 12:44:17;;;;;;;12.32;3.22;;;16.00;99.90;;;;;;5007289;28;20123;-91
2023/03/13 12:47:05;;;;;;;12.43;2.40;;;16.10;99.90;;;;;;5006746;28;20517;-90
2023/03/13 12:50:11;;;;;;;13.13;2.97;;;16.00;99.90;;;;;;5020320;28;20384;-90
2023/03/13 12:52:49;;;;;;;15.98;3.33;;;16.00;99.90;;;;;;5036474;28;20041;-91
2023/03/13 12:55:30;;;;;;;12.27;2.88;;;15.90;99.90;;;;;;5001929;28;20049;-91
2023/03/13 12:58:14;;;;;;;14.00;2.45;;;16.00;99.90;;;;;;5008306;28;20046;-91
2023/03/13 13:00:41;;;;;;;22.35;3.53;;;;;;;;;;5023350;28;20051;-90
2023/03/13 13:03:16;;;;;;;21.05;4.38;;;;;;;;;;5024932;28;20072;-89
2023/03/13 13:06:12;;;;;;;12.85;2.60;;;15.60;99.90;;;;;;5036434;28;20570;-90
2023/03/13 13:08:45;;;;;;;17.92;3.22;;;15.60;99.90;;;;;;5005633;28;20103;-90
2023/03/13 13:11:33;;;;;;;16.73;2.97;;;15.60;99.90;;;;;;5019397;28;20086;-91
2023/03/13 13:14:18;;;;;;;23.95;4.00;;;15.40;99.90;;;;;;5021531;28;20042;-91
2023/03/13 13:16:50;;;;;;;19.77;4.05;;;15.70;99.90;;;;;;5007816;28;20406;-92
2023/03/13 13:19:25;;;;;;;14.35;3.20;;;;;;;;;;5009459;28;20118;-91
2023/03/13 13:22:28;;;;;;;13.93;3.50;;;15.50;99.90;;;;;;5006771;28;20045;-90
2023/03/13 13:24:59;;;;;;;18.33;3.35;;;15.40;99.90;;;;;;5016653;28;20040;-90
2023/03/13 13:27:45;;;;;;;20.63;3.35;;;15.40;99.90;;;;;;5017172;28;20033;-90
2023/03/13 13:30:17;;;;;;;19.63;3.20;;;15.30;99.90;;;;;;5019141;28;20045;-91
2023/03/13 13:32:48;;;;;;;18.58;3.20;;;15.30;99.90;;;;;;5006991;28;20095;-91
2023/03/13 13:35:30;;;;;;;15.75;2.78;;;;;;;;;;5010257;28;20037;-91
2023/03/13 13:38:17;;;;;;;14.85;4.72;;;15.40;99.90;;;;;;5026656;28;20166;-91
2023/03/13 13:41:04;;;;;;;15.20;3.63;;;15.20;99.90;;;;;;5020478;28;20099;-91
2023/03/13 13:43:44;;;;;;;15.70;3.13;;;15.60;99.90;;;;;;5020601;28;20080;-91
2023/03/13 13:46:28;;;;;;;14.15;3.42;;;15.40;99.90;;;;;;5001071;28;20375;-91
2023/03/13 13:49:06;;;;;;;23.02;4.05;;;15.50;99.90;;;;;;5038627;28;20478;-91
2023/03/13 13:51:40;;;;;;;18.23;3.42;;;15.70;99.90;;;;;;5023348;28;20179;-91
2023/03/13 13:54:11;;;;;;;19.92;3.50;;;15.60;99.90;;;;;;5007324;28;20086;-91
2023/03/13 13:56:41;;;;;;;20.67;5.00;;;15.50;99.90;;;;;;5028737;28;20045;-91
2023/03/13 13:59:25;;;;;;;19.73;4.03;;;15.50;99.90;;;;;;5030116;28;20412;-90
2023/03/13 14:02:22;;;;;;;17.65;3.53;;;15.50;99.90;;;;;;5009988;28;20041;-90
2023/03/13 14:04:51;;;;;;;21.13;3.85;;;;;;;;;;4990535;28;20471;-91